Time;durP1;ratioP1;P1;durP2;ratioP2;P2;SDS_P1;SDS_P2;PMS_P1;PMS_P2;Temp;Humidity;BMP_temperature;BMP_pressure;BME280_temperature;BME280_humidity;BME280_pressure;Samples;Min_cycle;Max_cycle;Signal;HPM_P1;HPM_P2
2022/10/24 00:02:27;;;;;;;4.85;3.17;;;18.40;52.50;;;;;;6222443;23;20177;-82
2022/10/24 00:05:00;;;;;;;4.05;3.60;;;18.30;52.40;;;;;;6220816;23;20149;-81
2022/10/24 00:07:26;;;;;;;4.93;3.50;;;18.40;52.40;;;;;;6221591;23;20527;-81
2022/10/24 00:09:58;;;;;;;4.30;3.30;;;18.40;52.50;;;;;;6246930;23;20130;-82
2022/10/24 00:12:28;;;;;;;4.30;3.63;;;18.40;52.40;;;;;;6196222;23;20521;-81
2022/10/24 00:15:02;;;;;;;4.47;3.67;;;18.40;52.50;;;;;;6196621;23;20157;-81
2022/10/24 00:17:33;;;;;;;4.25;3.45;;;18.40;52.50;;;;;;6196419;23;20145;-82
2022/10/24 00:19:59;;;;;;;4.18;3.60;;;18.40;52.50;;;;;;6221397;23;20164;-82
2022/10/24 00:22:26;;;;;;;4.10;3.22;;;18.30;52.50;;;;;;6247177;23;20129;-82
2022/10/24 00:25:05;;;;;;;3.80;3.20;;;18.40;52.50;;;;;;6221901;23;20195;-82
2022/10/24 00:27:36;;;;;;;3.83;3.00;;;18.30;52.50;;;;;;6221733;23;20163;-82
2022/10/24 00:30:11;;;;;;;3.80;3.33;;;18.40;52.50;;;;;;6170886;23;20153;-81
2022/10/24 00:32:37;;;;;;;4.10;3.13;;;18.40;52.50;;;;;;6221106;23;20159;-82
2022/10/24 00:35:08;;;;;;;3.50;3.20;;;18.40;52.50;;;;;;6222776;23;20172;-82
2022/10/24 00:37:38;;;;;;;4.03;3.42;;;18.40;52.50;;;;;;6221512;23;20287;-81
2022/10/24 00:40:05;;;;;;;3.60;3.30;;;18.40;52.50;;;;;;6196398;23;20157;-81
2022/10/24 00:42:33;;;;;;;3.78;3.38;;;18.40;52.60;;;;;;6221716;23;20145;-82
2022/10/24 00:45:23;;;;;;;4.00;3.33;;;18.40;52.50;;;;;;6197264;23;20154;-82
2022/10/24 00:47:54;;;;;;;3.40;3.10;;;18.40;52.50;;;;;;6226009;23;20611;-81
2022/10/24 00:50:24;;;;;;;3.75;3.20;;;18.30;52.50;;;;;;6220744;23;20153;-82
2022/10/24 00:52:53;;;;;;;3.85;3.35;;;18.40;52.60;;;;;;6221365;23;20146;-81
2022/10/24 00:55:20;;;;;;;4.13;3.47;;;18.30;52.60;;;;;;6196522;23;20150;-81
2022/10/24 00:57:49;;;;;;;3.92;3.45;;;18.40;52.60;;;;;;6246962;23;20192;-82
2022/10/24 01:00:22;;;;;;;4.00;3.22;;;18.40;52.70;;;;;;6222269;23;20169;-81
2022/10/24 01:02:48;;;;;;;3.90;3.50;;;18.40;52.70;;;;;;6196480;23;20236;-82
2022/10/24 01:05:20;;;;;;;3.50;3.20;;;18.40;52.70;;;;;;6222538;23;20457;-82
2022/10/24 01:08:15;;;;;;;3.65;3.08;;;18.30;52.70;;;;;;6196030;23;20159;-82
2022/10/24 01:11:04;;;;;;;3.80;3.35;;;18.40;52.70;;;;;;6224904;23;20153;-81
2022/10/24 01:13:44;;;;;;;4.68;3.72;;;18.30;52.70;;;;;;6248097;23;20137;-82
2022/10/24 01:16:34;;;;;;;3.90;3.50;;;18.30;52.70;;;;;;6248958;23;20147;-82
2022/10/24 01:19:24;;;;;;;3.63;3.22;;;18.30;52.70;;;;;;6225396;23;20169;-82
2022/10/24 01:21:58;;;;;;;3.45;3.13;;;18.30;52.80;;;;;;6246775;23;20149;-82
2022/10/24 01:24:38;;;;;;;4.00;3.35;;;18.30;52.80;;;;;;6196466;23;20156;-81
2022/10/24 01:27:27;;;;;;;4.28;3.55;;;18.30;52.80;;;;;;6222035;23;20176;-82
2022/10/24 01:30:06;;;;;;;3.88;3.42;;;18.30;53.50;;;;;;6249304;22;20235;-82
2022/10/24 01:32:40;;;;;;;3.63;3.00;;;18.30;52.80;;;;;;6247284;23;20140;-82
2022/10/24 01:35:34;;;;;;;3.85;3.33;;;18.30;52.80;;;;;;6221563;23;20171;-82
2022/10/24 01:38:18;;;;;;;4.20;3.33;;;18.20;52.80;;;;;;6200472;23;20243;-81
2022/10/24 01:41:01;;;;;;;4.35;3.20;;;18.30;52.80;;;;;;6222593;23;20152;-82
2022/10/24 01:43:29;;;;;;;3.60;3.30;;;18.30;52.90;;;;;;6197952;23;20149;-81
2022/10/24 01:46:03;;;;;;;3.40;2.90;;;18.30;52.90;;;;;;6249089;23;20200;-82
2022/10/24 01:48:35;;;;;;;4.20;3.38;;;18.30;52.90;;;;;;6197920;23;20153;-82
2022/10/24 01:51:06;;;;;;;4.43;3.50;;;18.30;52.90;;;;;;6223747;23;20588;-82
2022/10/24 01:53:32;;;;;;;4.03;3.35;;;18.30;52.90;;;;;;6198254;23;20595;-82
2022/10/24 01:55:58;;;;;;;3.92;3.30;;;18.30;52.90;;;;;;6248906;23;20649;-82
2022/10/24 01:58:29;;;;;;;3.58;3.28;;;18.20;52.90;;;;;;6223844;23;20255;-82
2022/10/24 02:00:57;;;;;;;4.03;3.47;;;18.30;52.90;;;;;;6197843;23;20172;-82
2022/10/24 02:03:32;;;;;;;3.40;3.10;;;18.30;53.00;;;;;;6223589;23;20149;-81
2022/10/24 02:06:02;;;;;;;3.42;3.13;;;18.30;53.10;;;;;;6249636;23;20163;-81
2022/10/24 02:08:33;;;;;;;3.85;3.45;;;18.30;53.00;;;;;;6248705;23;20201;-82
2022/10/24 02:11:04;;;;;;;3.70;3.17;;;18.20;53.00;;;;;;6249196;23;20145;-82
2022/10/24 02:13:49;;;;;;;3.60;3.20;;;18.30;53.10;;;;;;6223226;23;20157;-81
2022/10/24 02:16:21;;;;;;;3.67;3.25;;;18.20;53.10;;;;;;6224631;23;20623;-82
2022/10/24 02:18:49;;;;;;;4.35;3.50;;;18.30;53.10;;;;;;6172933;23;20188;-82
2022/10/24 02:21:52;;;;;;;3.85;3.30;;;18.30;53.10;;;;;;6248711;23;20150;-82
2022/10/24 02:24:26;;;;;;;3.30;3.00;;;18.30;53.10;;;;;;6228075;23;20145;-81
2022/10/24 02:26:55;;;;;;;3.42;3.10;;;18.30;53.10;;;;;;6198084;23;20200;-82
2022/10/24 02:29:31;;;;;;;3.60;3.28;;;18.30;53.10;;;;;;6248951;23;20161;-81
2022/10/24 02:31:58;;;;;;;3.40;3.10;;;18.30;53.10;;;;;;6223132;23;20427;-82
2022/10/24 02:34:29;;;;;;;3.60;3.30;;;18.20;53.10;;;;;;6248932;23;20537;-81
2022/10/24 02:36:55;;;;;;;3.70;3.28;;;18.20;53.20;;;;;;6222796;23;20674;-82
2022/10/24 02:39:21;;;;;;;3.58;3.20;;;18.30;53.20;;;;;;6248075;23;20201;-82
2022/10/24 02:41:55;;;;;;;3.30;3.00;;;18.30;53.20;;;;;;6223431;23;20149;-81
2022/10/24 02:44:26;;;;;;;3.78;3.30;;;18.20;53.20;;;;;;6222282;23;20149;-82
2022/10/24 02:47:04;;;;;;;3.67;3.28;;;18.30;53.20;;;;;;6172914;23;20458;-81
2022/10/24 02:49:33;;;;;;;3.83;3.40;;;18.20;53.20;;;;;;6197399;23;20157;-82
2022/10/24 02:51:59;;;;;;;3.85;3.30;;;18.20;53.20;;;;;;6197539;23;20149;-82
2022/10/24 02:54:30;;;;;;;3.42;3.00;;;18.30;53.20;;;;;;6248317;23;20195;-82
2022/10/24 02:57:02;;;;;;;3.65;3.35;;;18.20;53.20;;;;;;6196858;23;20600;-81
2022/10/24 02:59:34;;;;;;;4.00;3.45;;;18.20;53.20;;;;;;6197433;23;20692;-82
2022/10/24 03:02:00;;;;;;;3.40;3.10;;;18.20;53.20;;;;;;6171891;23;20157;-82
2022/10/24 03:04:30;;;;;;;4.25;3.35;;;18.20;53.30;;;;;;6223603;23;20573;-81
2022/10/24 03:06:56;;;;;;;3.83;3.15;;;18.20;53.30;;;;;;6196993;22;20153;-81
2022/10/24 03:09:25;;;;;;;3.53;3.20;;;18.30;54.00;;;;;;6248642;23;20461;-81
2022/10/24 03:11:55;;;;;;;3.70;3.25;;;18.20;53.20;;;;;;6222486;22;20176;-81
2022/10/24 03:14:31;;;;;;;3.67;3.17;;;18.20;53.30;;;;;;6222274;23;20585;-82
2022/10/24 03:17:01;;;;;;;3.30;3.00;;;18.20;53.30;;;;;;6221921;23;20153;-82
2022/10/24 03:19:30;;;;;;;3.45;3.08;;;18.20;53.30;;;;;;6221933;23;20516;-81
2022/10/24 03:22:00;;;;;;;3.50;3.00;;;18.20;53.30;;;;;;6197098;23;20657;-82
2022/10/24 03:24:30;;;;;;;3.35;2.97;;;18.30;53.30;;;;;;6221383;23;20477;-83
2022/10/24 03:27:00;;;;;;;3.50;3.17;;;18.20;53.30;;;;;;6196877;23;20268;-82
2022/10/24 03:29:26;;;;;;;3.60;3.30;;;18.20;53.30;;;;;;6196751;23;20588;-82
2022/10/24 03:31:52;;;;;;;4.10;3.55;;;18.20;53.30;;;;;;6254738;23;20577;-81
2022/10/24 03:34:18;;;;;;;3.88;3.30;;;18.20;53.30;;;;;;6230808;23;20149;-82
2022/10/24 03:36:45;;;;;;;4.18;2.88;;;18.20;53.30;;;;;;6230922;23;20203;-82
2022/10/24 03:39:14;;;;;;;4.35;3.42;;;18.20;53.30;;;;;;6232370;23;20169;-81
2022/10/24 03:41:46;;;;;;;3.38;3.08;;;18.20;53.40;;;;;;6231108;23;20152;-82
2022/10/24 03:44:19;;;;;;;3.50;3.20;;;18.30;53.40;;;;;;6204412;23;20179;-82
2022/10/24 03:46:50;;;;;;;3.85;3.45;;;18.20;54.10;;;;;;6231177;23;20149;-82
2022/10/24 03:49:21;;;;;;;3.80;3.30;;;18.20;53.50;;;;;;6205049;23;20153;-81
2022/10/24 03:51:51;;;;;;;3.53;3.20;;;18.20;53.50;;;;;;6228276;23;20157;-82
2022/10/24 03:54:20;;;;;;;3.75;3.10;;;18.20;53.40;;;;;;6203251;23;20145;-81
2022/10/24 03:56:51;;;;;;;3.20;2.90;;;18.20;53.50;;;;;;6202791;23;20476;-82
2022/10/24 03:59:20;;;;;;;3.65;3.13;;;18.20;53.50;;;;;;6228088;23;20184;-82
2022/10/24 04:01:50;;;;;;;3.40;3.10;;;18.20;53.50;;;;;;6198861;23;20157;-81
2022/10/24 04:04:20;;;;;;;3.40;3.10;;;18.10;53.50;;;;;;6221814;23;20154;-82
2022/10/24 04:06:53;;;;;;;3.80;3.30;;;18.20;53.50;;;;;;6171244;23;20176;-82
2022/10/24 04:09:24;;;;;;;3.42;3.13;;;18.20;53.50;;;;;;6171511;23;20176;-81
2022/10/24 04:11:55;;;;;;;3.30;3.00;;;18.20;53.50;;;;;;6196198;23;20288;-81
2022/10/24 04:14:25;;;;;;;3.67;3.38;;;18.20;53.50;;;;;;6196409;23;20480;-82
2022/10/24 04:16:53;;;;;;;3.55;3.22;;;18.20;54.10;;;;;;6221642;23;20228;-81
2022/10/24 04:19:24;;;;;;;3.40;3.10;;;18.20;53.50;;;;;;6196570;23;20188;-81
2022/10/24 04:21:52;;;;;;;3.25;2.95;;;18.20;53.50;;;;;;6221822;23;20207;-81
2022/10/24 04:24:20;;;;;;;3.53;3.22;;;18.20;53.50;;;;;;6222149;23;20154;-82
2022/10/24 04:26:47;;;;;;;3.65;3.25;;;18.10;53.50;;;;;;6196364;23;20156;-82
2022/10/24 04:29:15;;;;;;;3.83;3.33;;;18.20;53.50;;;;;;6221224;23;20157;-82
2022/10/24 04:31:43;;;;;;;3.45;3.13;;;18.20;53.50;;;;;;6221697;23;20210;-81
2022/10/24 04:34:10;;;;;;;3.40;2.97;;;18.20;53.50;;;;;;6221304;23;20146;-81
2022/10/24 04:36:38;;;;;;;3.30;2.97;;;18.20;53.50;;;;;;6220968;23;20196;-82
2022/10/24 04:39:08;;;;;;;4.15;3.15;;;18.20;53.50;;;;;;6197370;23;20180;-82
2022/10/24 04:41:35;;;;;;;3.65;3.25;;;18.20;53.60;;;;;;6221429;22;20567;-82
2022/10/24 04:44:06;;;;;;;3.28;2.90;;;18.20;53.50;;;;;;6195810;23;20145;-82
2022/10/24 04:46:36;;;;;;;3.40;3.08;;;18.30;53.70;;;;;;6196986;23;20158;-81
2022/10/24 04:49:03;;;;;;;3.70;3.30;;;18.20;53.50;;;;;;6221424;23;20160;-82
2022/10/24 04:51:30;;;;;;;4.00;3.30;;;18.20;53.60;;;;;;6195717;23;20167;-82
2022/10/24 04:54:01;;;;;;;3.70;3.30;;;18.20;53.70;;;;;;6195616;23;20185;-81
2022/10/24 04:56:31;;;;;;;3.63;2.97;;;18.20;53.70;;;;;;6196714;23;20153;-81
2022/10/24 04:58:58;;;;;;;3.30;2.90;;;18.20;53.80;;;;;;6172076;23;20181;-82
2022/10/24 05:01:29;;;;;;;3.63;3.22;;;18.20;53.80;;;;;;6195797;23;20149;-81
2022/10/24 05:03:58;;;;;;;3.25;2.95;;;18.10;53.70;;;;;;6197223;23;20149;-82
2022/10/24 05:06:25;;;;;;;3.08;2.78;;;18.10;53.80;;;;;;6248745;23;20133;-81
2022/10/24 05:08:58;;;;;;;3.45;3.15;;;18.10;53.70;;;;;;6250650;23;20198;-81
2022/10/24 05:11:28;;;;;;;3.03;2.55;;;18.20;53.70;;;;;;6223309;23;20183;-82
2022/10/24 05:13:54;;;;;;;2.88;2.50;;;18.20;53.90;;;;;;6198570;23;20183;-82
2022/10/24 05:16:24;;;;;;;2.45;2.22;;;18.20;53.20;;;;;;6224301;23;20141;-82
2022/10/24 05:18:50;;;;;;;3.03;2.35;;;18.30;53.10;;;;;;6174151;23;20189;-82
2022/10/24 05:21:23;;;;;;;2.50;2.30;;;18.30;53.10;;;;;;6251977;23;20502;-82
2022/10/24 05:23:49;;;;;;;2.78;2.40;;;18.30;52.90;;;;;;6202406;23;20151;-82
2022/10/24 05:26:15;;;;;;;2.50;2.30;;;18.40;52.90;;;;;;6259439;23;20173;-82
2022/10/24 05:28:41;;;;;;;2.53;2.28;;;18.40;52.80;;;;;;6261563;23;20145;-81
2022/10/24 05:31:07;;;;;;;2.80;2.47;;;18.30;52.80;;;;;;6237214;23;20141;-82
2022/10/24 05:33:33;;;;;;;2.20;2.00;;;18.30;52.80;;;;;;6236394;23;20165;-82
2022/10/24 05:35:59;;;;;;;2.45;2.25;;;18.40;52.70;;;;;;6235933;23;20520;-82
2022/10/24 05:38:29;;;;;;;2.58;2.38;;;18.40;52.70;;;;;;6237378;23;20181;-82
2022/10/24 05:40:58;;;;;;;2.40;2.20;;;18.30;52.70;;;;;;6211786;23;20205;-83
2022/10/24 05:43:25;;;;;;;2.17;1.95;;;18.50;52.60;;;;;;6214083;23;20145;-82
2022/10/24 05:45:56;;;;;;;2.38;2.17;;;18.50;52.60;;;;;;6262391;23;20152;-82
2022/10/24 05:48:26;;;;;;;2.58;2.20;;;18.40;52.50;;;;;;6212137;23;20181;-82
2022/10/24 05:50:59;;;;;;;2.15;1.90;;;18.60;52.60;;;;;;6210355;23;20153;-82
2022/10/24 05:53:30;;;;;;;2.55;2.00;;;18.50;52.60;;;;;;6207860;23;20541;-82
2022/10/24 05:55:56;;;;;;;2.30;2.05;;;18.50;52.50;;;;;;6210220;23;20228;-83
2022/10/24 05:58:27;;;;;;;2.20;2.00;;;18.60;52.60;;;;;;6258327;23;20520;-82
2022/10/24 06:00:53;;;;;;;2.20;2.00;;;18.50;52.60;;;;;;6182981;23;20153;-82
2022/10/24 06:03:25;;;;;;;2.13;1.92;;;18.50;52.60;;;;;;6236251;23;20141;-81
2022/10/24 06:05:56;;;;;;;2.17;1.98;;;18.60;52.50;;;;;;6208741;23;20150;-81
2022/10/24 06:08:26;;;;;;;2.28;2.08;;;18.50;52.40;;;;;;6233085;23;20177;-82
2022/10/24 06:10:52;;;;;;;2.22;2.03;;;18.50;52.40;;;;;;6207187;23;20199;-81
2022/10/24 06:13:22;;;;;;;2.28;2.08;;;18.50;52.50;;;;;;6259468;23;20554;-82
2022/10/24 06:15:48;;;;;;;2.10;1.90;;;18.60;53.20;;;;;;6207919;23;20155;-83
2022/10/24 06:18:18;;;;;;;1.90;1.80;;;18.50;52.40;;;;;;6263791;23;20589;-82
2022/10/24 06:24:21;;;;;;;2.65;1.70;;;18.60;52.40;;;;;;6045504;23;20218;-86
2022/10/24 06:30:35;;;;;;;1.90;1.70;;;18.60;52.40;;;;;;5960633;24;20164;-87
2022/10/24 06:33:31;;;;;;;1.85;1.55;;;18.60;52.30;;;;;;5910364;24;20205;-85
2022/10/24 06:40:04;;;;;;;1.67;1.40;;;18.70;52.30;;;;;;5878669;24;20262;-87
2022/10/24 06:42:38;;;;;;;1.67;1.48;;;18.70;52.30;;;;;;5878176;24;20158;-85
2022/10/24 06:45:29;;;;;;;1.40;1.30;;;18.70;52.20;;;;;;5878686;24;20196;-82
2022/10/24 06:47:55;;;;;;;1.73;1.63;;;18.70;52.20;;;;;;5865978;24;20167;-82
2022/10/24 06:50:27;;;;;;;1.80;1.70;;;18.70;52.20;;;;;;5847979;24;20167;-81
2022/10/24 06:52:54;;;;;;;2.58;1.73;;;18.70;52.20;;;;;;5877795;24;20165;-80
2022/10/24 06:55:23;;;;;;;1.42;1.20;;;18.70;52.20;;;;;;5875027;24;20155;-81
2022/10/24 06:57:49;;;;;;;1.48;1.30;;;18.70;52.90;;;;;;5855326;24;20166;-80
2022/10/24 07:00:15;;;;;;;1.60;1.50;;;18.80;52.20;;;;;;5862017;24;20674;-80
2022/10/24 07:02:49;;;;;;;3.50;1.67;;;18.80;52.20;;;;;;5888873;24;20212;-81
2022/10/24 07:05:35;;;;;;;1.90;1.45;;;18.80;52.30;;;;;;5913300;24;20153;-81
2022/10/24 07:08:09;;;;;;;2.80;1.73;;;18.80;52.20;;;;;;6087078;23;20309;-81
2022/10/24 07:10:35;;;;;;;1.70;1.60;;;18.80;52.10;;;;;;6075507;23;20238;-81
2022/10/24 07:13:08;;;;;;;1.77;1.50;;;18.80;52.30;;;;;;6097840;23;20152;-81
2022/10/24 07:15:38;;;;;;;1.73;1.42;;;18.70;52.20;;;;;;6160569;23;20248;-81
2022/10/24 07:18:04;;;;;;;1.70;1.50;;;18.80;52.30;;;;;;6179272;23;20274;-81
2022/10/24 07:20:30;;;;;;;1.50;1.40;;;18.80;52.80;;;;;;6254863;23;20152;-81
2022/10/24 07:22:56;;;;;;;1.42;1.33;;;18.70;52.10;;;;;;6229052;23;20534;-81
2022/10/24 07:25:26;;;;;;;1.40;1.30;;;18.70;52.10;;;;;;6205797;23;20489;-80
2022/10/24 07:27:56;;;;;;;2.72;1.70;;;18.80;52.20;;;;;;6181681;23;20255;-80
2022/10/24 07:30:27;;;;;;;1.60;1.40;;;18.80;52.30;;;;;;6182373;23;20149;-80
2022/10/24 07:32:54;;;;;;;1.38;1.20;;;18.80;52.20;;;;;;6181406;23;20145;-80
2022/10/24 07:35:23;;;;;;;1.30;1.20;;;18.80;52.20;;;;;;6229516;23;20158;-79
2022/10/24 07:38:13;;;;;;;6.43;1.40;;;18.80;52.20;;;;;;6201138;23;20196;-78
2022/10/24 07:40:42;;;;;;;2.80;1.15;;;18.80;52.20;;;;;;6229533;23;20205;-81
2022/10/24 07:43:12;;;;;;;1.35;1.08;;;18.80;52.00;;;;;;6205703;23;20145;-81
2022/10/24 07:45:45;;;;;;;1.38;1.25;;;18.90;51.90;;;;;;6204345;23;20295;-81
2022/10/24 07:48:15;;;;;;;3.63;1.55;;;18.90;51.90;;;;;;6205731;23;20157;-81
2022/10/24 07:50:46;;;;;;;1.92;1.58;;;18.80;51.90;;;;;;6205263;23;20639;-81
2022/10/24 07:53:16;;;;;;;1.30;1.20;;;18.90;52.00;;;;;;6229095;23;20157;-81
2022/10/24 07:55:43;;;;;;;2.65;1.13;;;18.80;51.80;;;;;;6229379;23;20153;-80
2022/10/24 07:58:09;;;;;;;1.58;1.48;;;18.90;51.80;;;;;;6231468;23;20307;-80
2022/10/24 08:00:39;;;;;;;1.23;1.13;;;18.90;52.00;;;;;;6230066;23;20195;-80
2022/10/24 08:03:05;;;;;;;3.58;1.40;;;18.90;51.90;;;;;;6202329;23;20149;-81
2022/10/24 08:05:39;;;;;;;1.20;1.10;;;18.90;51.80;;;;;;6227659;23;20561;-80
2022/10/24 08:08:05;;;;;;;2.95;1.20;;;18.90;51.90;;;;;;6204826;23;20244;-81
2022/10/24 08:10:42;;;;;;;6.78;1.33;;;18.90;52.00;;;;;;6228162;23;20329;-81
2022/10/24 08:13:13;;;;;;;1.65;1.20;;;18.90;51.90;;;;;;6178870;23;20235;-81
2022/10/24 08:15:52;;;;;;;3.38;1.25;;;18.90;52.00;;;;;;6225166;23;20164;-81
2022/10/24 08:18:22;;;;;;;2.60;1.10;;;18.90;52.10;;;;;;6200903;23;20177;-81
2022/10/24 08:20:57;;;;;;;2.35;1.30;;;18.90;52.10;;;;;;6207525;23;20244;-80
2022/10/24 08:23:23;;;;;;;2.97;1.02;;;18.90;52.10;;;;;;6236044;23;20145;-80
2022/10/24 08:25:52;;;;;;;2.15;0.93;;;18.90;52.10;;;;;;6231052;23;20287;-81
2022/10/24 08:28:18;;;;;;;4.03;1.17;;;19.00;51.90;;;;;;6200843;23;20628;-81
2022/10/24 08:31:07;;;;;;;2.67;1.00;;;19.00;51.90;;;;;;6223608;23;20200;-80
2022/10/24 08:33:33;;;;;;;0.80;0.80;;;19.00;51.90;;;;;;6204308;23;20205;-81
2022/10/24 08:36:07;;;;;;;2.75;0.90;;;19.00;51.90;;;;;;6200585;23;20227;-81
2022/10/24 08:38:36;;;;;;;3.83;1.15;;;19.00;52.00;;;;;;6135754;23;20535;-80
2022/10/24 08:41:12;;;;;;;4.25;1.02;;;18.90;52.00;;;;;;6162535;23;20172;-81
2022/10/24 08:43:46;;;;;;;2.72;1.05;;;19.00;52.00;;;;;;6139245;23;20175;-80
2022/10/24 08:46:43;;;;;;;4.35;1.30;;;19.00;52.10;;;;;;6090982;23;20548;-81
2022/10/24 08:49:24;;;;;;;2.13;0.90;;;19.00;52.10;;;;;;6165537;23;20167;-81
2022/10/24 08:51:59;;;;;;;1.58;0.80;;;19.00;52.00;;;;;;6093599;23;20160;-81
2022/10/24 08:54:35;;;;;;;4.55;1.17;;;19.00;52.00;;;;;;6091425;23;20245;-81
2022/10/24 08:57:36;;;;;;;5.65;1.20;;;19.00;52.10;;;;;;6119365;23;20445;-80
2022/10/24 09:00:21;;;;;;;3.25;1.10;;;19.00;52.10;;;;;;6150770;23;20289;-80
2022/10/24 09:06:16;;;;;;;2.55;1.02;;;19.00;52.10;;;;;;6224277;23;20137;-81
2022/10/24 09:08:52;;;;;;;3.08;0.88;;;19.00;52.30;;;;;;6145915;23;20184;-80
2022/10/24 09:11:37;;;;;;;5.60;1.00;;;19.00;52.20;;;;;;6148784;23;20157;-80
2022/10/24 09:14:32;;;;;;;3.80;0.90;;;19.10;52.30;;;;;;6223676;23;20160;-81
2022/10/24 09:17:27;;;;;;;1.42;1.10;;;19.00;52.40;;;;;;6152641;23;20222;-81
2022/10/24 09:20:34;;;;;;;1.45;0.90;;;19.00;52.50;;;;;;6148256;23;20182;-82
2022/10/24 09:23:18;;;;;;;1.05;0.80;;;19.00;52.40;;;;;;6178749;23;20156;-80
2022/10/24 09:25:57;;;;;;;2.28;1.10;;;19.10;52.50;;;;;;6152841;23;20153;-81
2022/10/24 09:28:26;;;;;;;3.00;0.93;;;19.10;52.50;;;;;;6173565;23;20150;-81
2022/10/24 09:30:55;;;;;;;1.30;0.90;;;19.10;52.50;;;;;;6147898;23;20154;-80
2022/10/24 09:34:06;;;;;;;;;;;;;;;;;;;;;
2022/10/24 09:36:48;;;;;;;1.20;0.70;;;19.10;52.50;;;;;;6202435;23;20204;-81
2022/10/24 09:39:28;;;;;;;1.23;0.75;;;19.10;52.50;;;;;;6232925;23;20173;-80
2022/10/24 09:41:57;;;;;;;0.80;0.68;;;19.00;52.50;;;;;;6204675;23;20142;-80
2022/10/24 09:44:36;;;;;;;0.95;0.70;;;19.00;52.40;;;;;;6153555;23;20181;-81
2022/10/24 09:47:08;;;;;;;0.82;0.70;;;19.10;52.50;;;;;;6178804;23;20169;-81
2022/10/24 09:49:40;;;;;;;1.20;0.80;;;19.00;52.50;;;;;;6178835;23;20158;-81
2022/10/24 09:52:27;;;;;;;0.60;0.60;;;19.00;52.50;;;;;;6176822;23;20154;-81
2022/10/24 09:55:15;;;;;;;0.77;0.77;;;19.10;52.50;;;;;;6228929;23;20150;-83
2022/10/24 09:57:46;;;;;;;2.72;0.80;;;19.10;52.50;;;;;;6202434;23;20178;-83
2022/10/24 10:00:34;;;;;;;1.13;0.70;;;19.10;52.50;;;;;;6179462;23;20162;-82
2022/10/24 10:03:20;;;;;;;2.25;0.85;;;19.10;52.50;;;;;;6206631;23;20146;-83
2022/10/24 10:05:54;;;;;;;0.60;0.60;;;19.10;52.60;;;;;;6203833;23;20261;-83
2022/10/24 10:08:28;;;;;;;0.70;0.70;;;19.10;52.60;;;;;;6156556;23;20153;-83
2022/10/24 10:10:57;;;;;;;1.02;0.63;;;19.10;52.70;;;;;;6180034;23;20152;-82
2022/10/24 10:13:26;;;;;;;2.20;0.98;;;19.10;52.70;;;;;;6238022;23;20208;-83
2022/10/24 10:16:02;;;;;;;0.95;0.68;;;19.10;52.70;;;;;;6212210;23;20165;-83
2022/10/24 10:18:48;;;;;;;2.95;0.70;;;19.10;52.70;;;;;;6212649;23;20198;-84
2022/10/24 10:21:24;;;;;;;0.70;0.70;;;19.10;52.80;;;;;;6239875;23;20171;-84
2022/10/24 10:24:00;;;;;;;2.15;0.80;;;19.10;52.80;;;;;;6211758;23;20154;-84
2022/10/24 10:26:43;;;;;;;1.65;0.70;;;19.00;52.70;;;;;;6147777;23;20151;-84
2022/10/24 10:29:25;;;;;;;1.00;0.70;;;19.10;52.80;;;;;;6043589;23;20152;-83
2022/10/24 10:32:26;;;;;;;0.65;0.65;;;19.00;52.70;;;;;;6040526;23;20157;-82
2022/10/24 10:35:03;;;;;;;0.45;0.45;;;19.10;52.80;;;;;;6026934;23;20156;-83
2022/10/24 10:37:43;;;;;;;0.60;0.60;;;19.10;52.80;;;;;;6033998;23;20196;-81
2022/10/24 10:40:37;;;;;;;0.50;0.50;;;19.10;52.90;;;;;;6034858;23;20581;-82
2022/10/24 10:43:28;;;;;;;0.93;0.60;;;19.10;53.00;;;;;;6036794;23;20154;-82
2022/10/24 10:46:20;;;;;;;0.80;0.80;;;19.10;52.90;;;;;;6078274;23;20601;-82
2022/10/24 10:49:01;;;;;;;0.90;0.70;;;19.10;53.10;;;;;;6099495;23;20156;-81
2022/10/24 10:51:52;;;;;;;0.60;0.50;;;19.10;53.20;;;;;;6105139;23;20200;-81
2022/10/24 10:54:56;;;;;;;0.50;0.50;;;19.10;53.00;;;;;;6106253;23;20156;-81
2022/10/24 10:57:30;;;;;;;0.73;0.70;;;19.10;53.10;;;;;;6123239;23;20185;-81
2022/10/24 11:00:09;;;;;;;1.98;0.57;;;19.10;53.20;;;;;;6190402;23;20178;-81
2022/10/24 11:02:50;;;;;;;0.80;0.70;;;19.10;53.20;;;;;;6223192;23;20138;-81
2022/10/24 11:05:44;;;;;;;1.13;0.60;;;19.10;53.30;;;;;;6201130;23;20146;-82
2022/10/24 11:08:33;;;;;;;1.05;0.68;;;19.10;53.30;;;;;;6228337;23;20493;-81
2022/10/24 11:11:06;;;;;;;1.33;0.70;;;19.10;53.30;;;;;;6228773;23;20142;-82
2022/10/24 11:13:40;;;;;;;0.90;0.50;;;19.10;53.30;;;;;;6201659;23;20158;-81
2022/10/24 11:16:11;;;;;;;0.52;0.50;;;19.00;53.40;;;;;;6202255;23;20200;-81
2022/10/24 11:18:42;;;;;;;0.75;0.70;;;19.10;53.50;;;;;;6202806;23;20473;-82
2022/10/24 11:21:10;;;;;;;0.50;0.50;;;19.10;53.50;;;;;;6207676;23;20169;-81
2022/10/24 11:23:57;;;;;;;0.60;0.60;;;19.10;53.50;;;;;;6232748;23;20149;-82
2022/10/24 11:26:31;;;;;;;1.85;0.52;;;19.10;53.50;;;;;;6233047;23;20161;-82
2022/10/24 11:29:13;;;;;;;1.35;0.60;;;19.10;53.50;;;;;;6204482;23;20166;-83
2022/10/24 11:31:42;;;;;;;0.50;0.50;;;19.10;53.50;;;;;;6177422;23;20157;-82
2022/10/24 11:34:27;;;;;;;0.55;0.55;;;19.10;53.50;;;;;;6230824;23;20160;-81
2022/10/24 11:37:01;;;;;;;0.57;0.50;;;19.10;53.70;;;;;;6256895;22;20211;-82
2022/10/24 11:39:37;;;;;;;0.60;0.52;;;19.10;53.50;;;;;;6218457;22;20199;-83
2022/10/24 11:42:18;;;;;;;0.85;0.50;;;19.10;53.60;;;;;;6241339;22;20148;-82
2022/10/24 11:45:00;;;;;;;0.60;0.60;;;19.00;53.60;;;;;;6241885;22;20148;-82
2022/10/24 11:47:48;;;;;;;0.60;0.60;;;19.10;53.70;;;;;;6243527;22;20258;-82
2022/10/24 11:50:21;;;;;;;0.57;0.50;;;19.10;53.70;;;;;;6292805;22;20144;-82
2022/10/24 11:52:49;;;;;;;0.85;0.60;;;19.20;53.80;;;;;;6242027;22;20152;-81
2022/10/24 11:55:18;;;;;;;2.10;0.70;;;19.10;53.80;;;;;;6267668;22;20145;-82
2022/10/24 11:57:51;;;;;;;0.40;0.40;;;19.20;53.80;;;;;;6265782;22;20144;-82
2022/10/24 12:00:29;;;;;;;0.65;0.60;;;19.10;53.70;;;;;;6214277;22;20156;-82
2022/10/24 12:03:01;;;;;;;0.50;0.50;;;19.10;53.70;;;;;;6214575;22;20152;-82
2022/10/24 12:05:57;;;;;;;0.60;0.60;;;19.10;53.60;;;;;;6265954;22;20153;-82
2022/10/24 12:08:57;;;;;;;0.70;0.70;;;19.20;53.60;;;;;;6248233;22;20152;-82
2022/10/24 12:11:46;;;;;;;0.55;0.50;;;19.10;53.70;;;;;;6278638;22;20164;-82
2022/10/24 12:14:26;;;;;;;0.50;0.45;;;19.10;53.80;;;;;;6216124;22;20148;-81
2022/10/24 12:17:07;;;;;;;0.57;0.57;;;19.10;53.80;;;;;;6217175;22;20182;-81
2022/10/24 12:19:35;;;;;;;0.50;0.50;;;19.10;53.80;;;;;;6293925;22;20173;-82
2022/10/24 12:22:10;;;;;;;1.55;0.60;;;19.10;53.80;;;;;;6241734;22;20148;-82
2022/10/24 12:24:40;;;;;;;0.68;0.60;;;19.10;53.90;;;;;;6213685;22;20215;-82
2022/10/24 12:27:31;;;;;;;1.58;0.63;;;19.10;53.90;;;;;;6213630;22;20149;-82
2022/10/24 12:30:13;;;;;;;1.42;0.70;;;19.10;53.90;;;;;;6263955;22;20157;-82
2022/10/24 12:32:42;;;;;;;0.73;0.50;;;19.20;53.80;;;;;;6214813;22;20160;-82
2022/10/24 12:35:34;;;;;;;0.55;0.55;;;19.20;53.90;;;;;;6264513;22;20167;-82
2022/10/24 12:38:27;;;;;;;0.50;0.50;;;19.10;53.90;;;;;;6257470;23;20204;-82
2022/10/24 12:41:05;;;;;;;0.50;0.50;;;19.20;53.90;;;;;;6235360;23;20149;-81
2022/10/24 12:43:37;;;;;;;0.60;0.60;;;19.10;54.00;;;;;;6234328;23;20215;-81
2022/10/24 12:46:38;;;;;;;0.50;0.50;;;19.10;54.10;;;;;;6208345;23;20149;-81
2022/10/24 12:49:23;;;;;;;0.40;0.40;;;19.10;54.10;;;;;;6261288;22;20149;-81
2022/10/24 12:51:52;;;;;;;0.75;0.63;;;19.10;54.00;;;;;;6234946;23;20149;-81
2022/10/24 12:54:38;;;;;;;0.43;0.43;;;19.20;54.00;;;;;;6259481;23;20129;-81
2022/10/24 12:57:20;;;;;;;0.55;0.50;;;19.10;53.90;;;;;;6259078;23;20137;-82
2022/10/24 12:59:52;;;;;;;0.50;0.50;;;19.20;53.90;;;;;;6207860;23;20189;-82
2022/10/24 13:02:24;;;;;;;0.80;0.50;;;19.20;54.10;;;;;;6214684;22;20157;-83
2022/10/24 13:05:05;;;;;;;1.67;0.60;;;19.20;54.10;;;;;;6267283;23;20137;-83
2022/10/24 13:08:08;;;;;;;0.60;0.50;;;19.10;54.10;;;;;;6215844;23;20159;-84
2022/10/24 13:11:01;;;;;;;0.73;0.50;;;19.20;54.20;;;;;;6266807;23;20143;-83
2022/10/24 13:13:50;;;;;;;0.47;0.43;;;19.20;54.30;;;;;;6237828;23;20149;-83
2022/10/24 13:16:39;;;;;;;0.73;0.60;;;19.20;54.40;;;;;;6244275;22;20153;-83
2022/10/24 13:19:16;;;;;;;0.52;0.52;;;19.20;54.60;;;;;;6239120;23;20177;-84
2022/10/24 13:21:49;;;;;;;0.55;0.55;;;19.10;54.60;;;;;;6212952;23;20149;-85
2022/10/24 13:24:27;;;;;;;0.88;0.68;;;19.20;54.60;;;;;;6231491;23;20172;-84
2022/10/24 13:27:18;;;;;;;0.60;0.60;;;19.10;54.90;;;;;;6230176;23;20148;-84
2022/10/24 13:30:05;;;;;;;0.38;0.38;;;19.20;54.80;;;;;;6258639;23;20148;-84
2022/10/24 13:33:23;;;;;;;;;;;;;;;;;;;;;
2022/10/24 13:35:54;;;;;;;0.50;0.50;;;19.20;54.80;;;;;;6133513;23;20159;-85
2022/10/24 13:38:21;;;;;;;1.00;0.70;;;19.10;54.80;;;;;;6165481;23;20238;-85
2022/10/24 13:40:47;;;;;;;0.60;0.60;;;19.10;54.80;;;;;;6144613;23;20151;-84
2022/10/24 13:43:19;;;;;;;1.08;0.60;;;19.20;54.80;;;;;;6117115;23;20635;-84